Time;durP1;ratioP1;P1;durP2;ratioP2;P2;SDS_P1;SDS_P2;PMS_P1;PMS_P2;Temp;Humidity;BMP_temperature;BMP_pressure;BME280_temperature;BME280_humidity;BME280_pressure;Samples;Min_cycle;Max_cycle;Signal;HPM_P1;HPM_P2
2021/01/15 00:02:03;;;;;;;9.20;5.70;;;;;;;6.37;45.51;101218.25;5031161;28;20513;-70
2021/01/15 00:04:30;;;;;;;7.97;5.25;;;;;;;6.38;45.43;101226.91;5032635;28;20045;-69
2021/01/15 00:07:05;;;;;;;8.73;5.55;;;;;;;6.38;45.35;101221.69;5032317;28;20057;-68
2021/01/15 00:09:31;;;;;;;7.85;4.95;;;;;;;6.38;45.41;101234.72;5032399;28;20052;-70
2021/01/15 00:11:58;;;;;;;9.27;4.80;;;;;;;6.38;45.35;101232.97;5031823;28;20053;-70
2021/01/15 00:14:25;;;;;;;9.77;5.00;;;;;;;6.38;45.30;101232.13;5032022;28;20085;-69
2021/01/15 00:16:53;;;;;;;8.45;5.00;;;;;;;6.38;45.58;101234.72;5032350;28;20045;-70
2021/01/15 00:19:20;;;;;;;10.32;4.97;;;;;;;6.38;45.49;101238.19;5032398;28;20088;-70
2021/01/15 00:21:50;;;;;;;7.88;4.68;;;;;;;6.38;45.43;101232.97;5032255;28;20068;-69
2021/01/15 00:24:20;;;;;;;6.88;4.47;;;;;;;6.40;45.76;101238.16;5032300;28;20422;-69
2021/01/15 00:26:47;;;;;;;6.88;4.40;;;;;;;6.40;45.54;101237.28;5032210;28;20044;-69
2021/01/15 00:29:15;;;;;;;8.40;4.75;;;;;;;6.38;45.82;101232.97;5032290;28;20050;-69
2021/01/15 00:31:44;;;;;;;6.43;4.25;;;;;;;6.40;45.74;101235.53;5031969;28;20045;-70
2021/01/15 00:34:12;;;;;;;9.10;4.40;;;;;;;6.38;46.09;101225.13;5032224;28;20052;-70
2021/01/15 00:36:40;;;;;;;7.90;4.70;;;;;;;6.38;46.21;101229.50;5031731;28;20041;-70
2021/01/15 00:39:08;;;;;;;7.45;4.80;;;;;;;6.38;46.24;101224.31;5032330;28;20052;-70
2021/01/15 00:41:38;;;;;;;9.00;4.38;;;;;;;6.38;46.10;101227.75;5031850;28;20068;-70
2021/01/15 00:44:05;;;;;;;6.50;4.32;;;;;;;6.38;46.18;101232.97;5032126;28;20490;-69
2021/01/15 00:46:32;;;;;;;6.47;4.20;;;;;;;6.40;46.59;101224.25;5032019;28;20045;-70
2021/01/15 00:49:01;;;;;;;7.13;4.95;;;;;;;6.38;46.36;101226.91;5032223;28;20056;-69
2021/01/15 00:51:28;;;;;;;7.90;4.15;;;;;;;6.40;46.27;101229.47;5031608;28;20129;-70
2021/01/15 00:53:54;;;;;;;8.38;4.13;;;;;;;6.41;46.32;101242.44;5032007;28;20049;-70
2021/01/15 00:56:21;;;;;;;6.15;4.10;;;;;;;6.40;46.47;101226.84;5031957;28;20057;-71
2021/01/15 00:58:48;;;;;;;7.38;4.38;;;;;;;6.41;46.66;101239.84;5031819;28;20045;-70
2021/01/15 01:01:15;;;;;;;6.47;3.88;;;;;;;6.40;46.40;101243.38;5031845;28;20052;-70
2021/01/15 01:03:45;;;;;;;6.90;4.35;;;;;;;6.41;46.49;101250.25;5031760;28;20064;-70
2021/01/15 01:06:16;;;;;;;7.90;3.80;;;;;;;6.41;46.42;101239.84;5034606;28;20056;-70
2021/01/15 01:08:43;;;;;;;7.43;3.85;;;;;;;6.42;46.58;101248.53;5035604;28;20045;-70
2021/01/15 01:11:20;;;;;;;6.57;4.03;;;;;;;6.42;46.71;101249.38;5035788;28;20532;-70
2021/01/15 01:13:48;;;;;;;7.55;4.53;;;;;;;6.42;46.75;101254.56;5035636;28;20045;-69
2021/01/15 01:16:15;;;;;;;6.43;3.47;;;;;;;6.42;46.72;101257.19;5035861;28;20053;-70
2021/01/15 01:18:42;;;;;;;9.77;4.05;;;;;;;6.43;46.81;101245.03;5035757;28;20053;-70
2021/01/15 01:21:09;;;;;;;5.20;3.28;;;;;;;6.42;46.72;101251.97;5035354;28;20413;-70
2021/01/15 01:23:36;;;;;;;8.07;4.15;;;;;;;6.43;46.71;101252.84;5035480;28;20045;-69
2021/01/15 01:26:02;;;;;;;7.65;4.18;;;;;;;6.43;46.64;101245.03;5035460;28;20045;-69
2021/01/15 01:28:29;;;;;;;9.77;3.85;;;;;;;6.41;46.52;101250.25;5035436;28;20056;-70
2021/01/15 01:30:55;;;;;;;7.18;3.65;;;;;;;6.42;46.51;101251.97;5035594;28;20049;-70
2021/01/15 01:33:22;;;;;;;6.00;3.20;;;;;;;6.42;46.54;101251.97;5035443;28;20048;-70
2021/01/15 01:35:49;;;;;;;5.25;3.30;;;;;;;6.42;46.29;101251.97;5035238;28;20053;-70
2021/01/15 01:38:16;;;;;;;4.47;2.58;;;;;;;6.42;46.68;101254.56;5035185;28;20045;-69
2021/01/15 01:40:42;;;;;;;4.60;3.30;;;;;;;6.42;46.40;101262.41;5035063;28;20053;-70
2021/01/15 01:43:08;;;;;;;6.00;3.10;;;;;;;6.42;46.19;101256.34;5035198;28;20053;-70
2021/01/15 01:45:34;;;;;;;4.95;2.80;;;;;;;6.43;46.36;101265.88;5035207;28;20398;-70
2021/01/15 01:48:01;;;;;;;7.13;3.10;;;;;;;6.42;46.27;101264.16;5035148;28;20494;-70
2021/01/15 01:50:30;;;;;;;4.40;2.83;;;;;;;6.41;46.24;101258.06;5035173;28;20045;-70
2021/01/15 01:52:56;;;;;;;4.95;2.72;;;;;;;6.42;46.27;101261.56;5035255;28;20041;-70
2021/01/15 01:55:23;;;;;;;4.72;2.83;;;;;;;6.41;46.33;101259.84;5034910;28;20107;-70
2021/01/15 01:57:49;;;;;;;4.60;2.67;;;;;;;6.41;46.24;101263.28;5034878;28;20041;-70
2021/01/15 02:00:16;;;;;;;4.45;2.50;;;;;;;6.43;46.28;101265.88;5034708;28;20049;-70
2021/01/15 02:02:42;;;;;;;4.97;2.50;;;;;;;6.42;46.26;101265.00;5034766;28;20056;-70
2021/01/15 02:05:09;;;;;;;4.20;2.25;;;;;;;6.43;46.08;101266.72;5034816;28;20069;-69
2021/01/15 02:07:35;;;;;;;3.33;2.33;;;;;;;6.44;46.36;101268.44;5034668;28;20037;-70
2021/01/15 02:10:31;;;;;;;5.07;2.53;;;;;;;6.45;46.01;101264.06;5034642;28;20054;-70
2021/01/15 02:12:57;;;;;;;7.07;3.05;;;;;;;6.45;46.02;101258.84;5034536;28;20502;-69
2021/01/15 02:15:44;;;;;;;5.07;2.50;;;;;;;6.45;46.13;101270.13;5034476;28;20520;-70
2021/01/15 02:18:38;;;;;;;6.25;2.40;;;;;;;6.45;46.00;101264.94;5033870;28;20064;-69
2021/01/15 02:21:46;;;;;;;4.60;2.30;;;;;;;6.46;45.90;101273.59;5034441;28;20053;-70
2021/01/15 02:24:53;;;;;;;5.70;2.60;;;;;;;6.46;45.95;101273.59;5034044;28;20069;-70
2021/01/15 02:27:22;;;;;;;;;;;;;;;6.46;46.08;101279.69;5034883;28;20056;-70
2021/01/15 02:30:16;;;;;;;3.70;2.28;;;;;;;6.45;45.78;101274.47;5034097;28;19925;-70
2021/01/15 02:32:57;;;;;;;4.45;2.50;;;;;;;6.45;45.87;101274.47;5034436;28;20053;-70
2021/01/15 02:35:52;;;;;;;4.43;2.47;;;;;;;6.46;46.01;101273.59;5034330;28;20057;-70
2021/01/15 02:38:37;;;;;;;4.85;2.25;;;;;;;6.47;45.97;101277.91;5033638;28;20049;-70
2021/01/15 02:41:27;;;;;;;4.10;2.50;;;;;;;6.46;45.98;101271.84;5034212;28;20133;-70
2021/01/15 02:44:16;;;;;;;3.75;2.65;;;;;;;6.45;45.83;101272.75;5034286;28;20053;-70
2021/01/15 02:46:45;;;;;;;6.82;2.70;;;;;;;6.45;46.06;101277.09;5033778;28;20038;-70
2021/01/15 02:49:13;;;;;;;4.10;2.72;;;;;;;6.46;46.16;101276.19;5034002;28;20517;-70
2021/01/15 02:51:40;;;;;;;5.07;2.97;;;;;;;6.46;46.16;101276.19;5033494;28;20052;-70
2021/01/15 02:54:07;;;;;;;4.53;2.50;;;;;;;6.45;46.11;101270.13;5034033;28;20415;-69
2021/01/15 02:56:34;;;;;;;5.00;2.10;;;;;;;6.46;46.17;101261.44;5033641;28;20057;-69
2021/01/15 02:59:00;;;;;;;6.07;2.72;;;;;;;6.44;46.30;101260.63;5033897;28;20045;-69
2021/01/15 03:01:31;;;;;;;5.07;2.65;;;;;;;6.44;46.36;101268.44;5033779;28;20494;-69
2021/01/15 03:04:10;;;;;;;6.28;3.00;;;;;;;6.44;46.29;101271.03;5033891;28;20107;-69
2021/01/15 03:06:49;;;;;;;6.47;3.05;;;;;;;6.44;46.49;101276.25;5033603;28;20046;-70
2021/01/15 03:09:16;;;;;;;6.22;3.13;;;;;;;6.45;46.57;101266.66;5033629;28;20050;-70
2021/01/15 03:11:46;;;;;;;5.45;2.92;;;;;;;6.44;46.36;101263.22;5033491;28;20103;-70
2021/01/15 03:14:16;;;;;;;6.65;2.42;;;;;;;6.43;46.45;101258.91;5033167;28;20049;-70
2021/01/15 03:16:44;;;;;;;6.88;3.25;;;;;;;6.41;46.35;101271.13;5032851;28;20045;-70
2021/01/15 03:19:11;;;;;;;5.05;2.42;;;;;;;6.40;46.48;101272.03;5033180;28;20046;-70
2021/01/15 03:21:38;;;;;;;6.65;2.90;;;;;;;6.40;46.58;101268.56;5033245;28;20049;-69
2021/01/15 03:24:08;;;;;;;4.80;2.50;;;;;;;6.40;46.69;101277.25;5033587;28;20045;-69
2021/01/15 03:26:34;;;;;;;8.02;3.33;;;;;;;6.40;46.55;101265.94;5033263;28;20052;-69
2021/01/15 03:29:00;;;;;;;7.10;2.50;;;;;;;6.38;46.46;101259.03;5033258;28;20049;-70
2021/01/15 03:31:27;;;;;;;5.28;2.30;;;;;;;6.37;46.18;101257.34;5033100;28;20053;-70
2021/01/15 03:33:58;;;;;;;4.50;2.78;;;;;;;6.36;46.18;101255.63;5033163;28;20124;-70
2021/01/15 03:36:24;;;;;;;4.45;2.55;;;;;;;6.35;46.43;101253.91;5032795;28;20049;-70
2021/01/15 03:38:50;;;;;;;5.15;2.75;;;;;;;6.33;46.44;101247.88;5032999;28;20053;-70
2021/01/15 03:41:16;;;;;;;5.95;2.75;;;;;;;6.34;46.40;101248.75;5032730;28;20041;-70
2021/01/15 03:43:42;;;;;;;4.78;2.53;;;;;;;6.32;46.41;101251.44;5033003;28;20052;-70
2021/01/15 03:46:08;;;;;;;4.88;2.58;;;;;;;6.32;46.27;101251.44;5032911;28;20049;-70
2021/01/15 03:48:34;;;;;;;5.55;2.47;;;;;;;6.33;46.22;101254.88;5032782;28;20045;-70
2021/01/15 03:51:01;;;;;;;6.18;2.53;;;;;;;6.31;46.27;101247.09;5032519;28;20041;-69
2021/01/15 03:53:27;;;;;;;7.10;2.47;;;;;;;6.32;46.28;101250.56;5032731;28;20088;-70
2021/01/15 03:55:53;;;;;;;4.70;2.53;;;;;;;6.32;46.21;101253.16;5032770;28;20045;-70
2021/01/15 03:58:19;;;;;;;5.97;2.45;;;;;;;6.32;46.13;101256.63;5032791;28;20045;-70
2021/01/15 04:00:46;;;;;;;6.03;2.95;;;;;;;6.33;46.29;101263.53;5032427;28;20048;-70
2021/01/15 04:03:12;;;;;;;6.68;3.00;;;;;;;6.33;46.44;101262.69;5028833;28;20399;-69
2021/01/15 04:05:38;;;;;;;4.65;2.58;;;;;;;6.33;46.33;101257.47;5029052;28;20041;-69
2021/01/15 04:08:06;;;;;;;5.82;2.88;;;;;;;6.32;46.36;101260.97;5029174;28;20572;-69
2021/01/15 04:10:32;;;;;;;5.35;2.85;;;;;;;6.32;46.74;101256.63;5028943;28;20045;-69
2021/01/15 04:12:58;;;;;;;4.97;2.67;;;;;;;6.31;46.56;101252.31;5029365;28;20049;-69
2021/01/15 04:15:24;;;;;;;5.60;3.13;;;;;;;6.31;46.76;101254.94;5029039;28;20064;-69
2021/01/15 04:17:50;;;;;;;4.70;2.88;;;;;;;6.29;46.73;101259.31;5029026;28;20045;-69
2021/01/15 04:20:17;;;;;;;8.65;3.45;;;;;;;6.28;46.77;101257.59;5029264;28;20057;-69
2021/01/15 04:22:47;;;;;;;6.30;3.10;;;;;;;6.28;46.93;101247.19;5028654;28;20046;-70
2021/01/15 04:25:20;;;;;;;7.78;2.67;;;;;;;6.28;47.01;101248.94;5027679;28;20049;-70
2021/01/15 04:27:51;;;;;;;6.95;3.38;;;;;;;6.27;46.86;101247.22;5028591;28;20128;-71
2021/01/15 04:30:17;;;;;;;6.75;2.85;;;;;;;6.26;46.77;101248.13;5028800;28;20494;-69
2021/01/15 04:32:48;;;;;;;4.80;2.60;;;;;;;6.25;46.91;101249.91;5028875;28;20079;-69
2021/01/15 04:35:15;;;;;;;5.25;2.67;;;;;;;6.26;46.80;101250.75;5029127;28;20049;-69
2021/01/15 04:37:42;;;;;;;4.97;2.72;;;;;;;6.24;46.78;101245.56;5028624;28;20050;-69
2021/01/15 04:40:09;;;;;;;4.22;2.50;;;;;;;6.25;46.77;101241.22;5028172;28;20045;-69
2021/01/15 04:42:44;;;;;;;5.93;2.88;;;;;;;6.23;46.63;101243.03;5028762;28;20057;-70
2021/01/15 04:45:13;;;;;;;5.40;2.88;;;;;;;6.22;46.58;101247.38;5028521;28;20048;-70
2021/01/15 04:47:47;;;;;;;4.82;2.53;;;;;;;6.21;46.56;101243.06;5028655;28;20049;-70
2021/01/15 04:50:15;;;;;;;4.95;2.40;;;;;;;6.22;46.53;101244.75;5028997;28;20045;-70
2021/01/15 04:52:52;;;;;;;5.82;2.63;;;;;;;6.21;46.51;101240.47;5028426;28;20146;-69
2021/01/15 04:55:20;;;;;;;5.25;2.42;;;;;;;6.20;46.47;101241.38;5028529;28;20490;-70
2021/01/15 04:57:49;;;;;;;6.50;2.65;;;;;;;6.21;46.50;101243.06;5028796;28;20045;-70
2021/01/15 05:00:21;;;;;;;7.10;2.78;;;;;;;6.20;46.43;101242.22;5028650;28;20068;-69
2021/01/15 05:02:49;;;;;;;4.70;2.70;;;;;;;6.20;46.33;101243.97;5028498;28;20498;-70
2021/01/15 05:05:24;;;;;;;4.70;2.47;;;;;;;6.19;46.44;101247.47;5028569;28;20052;-69
2021/01/15 05:08:14;;;;;;;3.97;2.45;;;;;;;6.19;46.45;101239.66;5028349;28;20046;-69
2021/01/15 05:10:45;;;;;;;4.22;2.30;;;;;;;6.18;46.47;101246.63;5027856;28;20041;-70
2021/01/15 05:13:14;;;;;;;5.70;2.47;;;;;;;6.19;46.44;101247.47;5028451;28;20509;-70
2021/01/15 05:15:48;;;;;;;3.85;2.33;;;;;;;6.18;46.40;101254.44;5028288;28;20061;-69
2021/01/15 05:18:16;;;;;;;4.60;2.15;;;;;;;6.18;46.36;101244.03;5028686;28;20049;-69
2021/01/15 05:20:44;;;;;;;5.35;2.28;;;;;;;6.18;46.26;101248.38;5028300;28;20049;-69
2021/01/15 05:23:10;;;;;;;5.97;2.50;;;;;;;6.19;46.19;101247.47;5028330;28;20041;-69
2021/01/15 05:25:45;;;;;;;6.57;2.30;;;;;;;6.17;46.29;101247.53;5028622;28;20045;-71
2021/01/15 05:28:14;;;;;;;6.57;2.05;;;;;;;6.17;46.43;101255.34;5028601;28;20124;-69
2021/01/15 05:30:41;;;;;;;8.07;2.65;;;;;;;6.17;46.30;101255.34;5028102;28;20413;-70
2021/01/15 05:33:15;;;;;;;5.80;2.70;;;;;;;6.16;46.18;101265.81;5028547;28;20046;-70
2021/01/15 05:35:42;;;;;;;6.03;2.70;;;;;;;6.16;46.40;101268.44;5028153;28;20384;-70
2021/01/15 05:38:12;;;;;;;5.95;3.05;;;;;;;6.15;46.13;101262.34;5028652;28;20054;-71
2021/01/15 05:40:46;;;;;;;5.15;2.60;;;;;;;6.15;46.30;101261.50;5028449;28;20205;-70
2021/01/15 05:43:27;;;;;;;4.47;2.90;;;;;;;6.15;46.15;101259.75;5028032;28;20049;-70
2021/01/15 05:46:07;;;;;;;5.43;2.88;;;;;;;6.15;46.08;101270.16;5028760;28;20049;-69
2021/01/15 05:48:35;;;;;;;4.90;2.65;;;;;;;6.14;46.32;101271.06;5027899;28;20045;-70
2021/01/15 05:51:01;;;;;;;5.82;2.40;;;;;;;6.13;46.14;101271.97;5035207;28;20049;-70
2021/01/15 05:53:40;;;;;;;8.23;2.80;;;;;;;6.12;46.13;101272.88;5034378;28;20052;-70
2021/01/15 05:56:06;;;;;;;5.22;2.30;;;;;;;6.12;46.27;101272.00;5031787;28;20093;-71
2021/01/15 05:58:32;;;;;;;5.72;2.47;;;;;;;6.11;46.17;101270.31;5031319;28;20052;-70
2021/01/15 06:00:58;;;;;;;5.95;3.00;;;;;;;6.13;46.28;101268.50;5043118;28;20076;-67
2021/01/15 06:03:25;;;;;;;5.43;2.60;;;;;;;6.13;46.17;101273.72;5036802;28;20045;-67
2021/01/15 06:05:51;;;;;;;4.53;2.58;;;;;;;6.15;46.17;101269.31;5031096;28;20494;-67
2021/01/15 06:08:18;;;;;;;5.38;3.67;;;;;;;6.16;46.13;101269.25;5031493;28;20041;-67
2021/01/15 06:10:47;;;;;;;4.75;3.08;;;;;;;6.16;46.22;101271.88;5031185;28;20053;-67
2021/01/15 06:13:36;;;;;;;6.88;2.80;;;;;;;6.17;46.10;101270.97;5031544;28;20064;-68
2021/01/15 06:16:18;;;;;;;10.98;2.90;;;;;;;6.16;46.10;101269.25;5030883;28;20049;-65
2021/01/15 06:19:01;;;;;;;5.55;2.80;;;;;;;6.18;46.21;101274.41;5031153;28;20056;-67
2021/01/15 06:21:36;;;;;;;8.20;2.97;;;;;;;6.18;46.20;101274.41;5031096;28;20064;-67
2021/01/15 06:24:05;;;;;;;7.18;2.95;;;;;;;6.18;46.20;101269.22;5030068;28;20490;-69
2021/01/15 06:26:39;;;;;;;5.65;3.20;;;;;;;6.18;46.01;101272.69;5031150;28;20403;-68
2021/01/15 06:29:11;;;;;;;9.05;2.80;;;;;;;6.19;46.03;101279.59;5031004;28;20046;-68
2021/01/15 06:31:42;;;;;;;4.57;2.90;;;;;;;6.19;45.80;101279.59;5030850;28;20091;-67
2021/01/15 06:34:09;;;;;;;6.15;3.58;;;;;;;6.18;45.89;101285.72;5031117;28;20046;-68
2021/01/15 06:37:06;;;;;;;7.10;3.17;;;;;;;6.18;45.72;101282.25;5030568;28;20053;-67
2021/01/15 06:39:32;;;;;;;5.90;3.53;;;;;;;6.17;45.98;101289.22;5030445;28;20060;-66
2021/01/15 06:42:02;;;;;;;5.55;3.03;;;;;;;6.18;45.89;101288.31;5030988;28;20107;-68
2021/01/15 06:44:29;;;;;;;6.20;3.53;;;;;;;6.18;45.79;101295.28;5031074;28;20107;-67
2021/01/15 06:47:02;;;;;;;6.40;3.05;;;;;;;6.18;45.75;101292.66;5030933;28;20052;-67
2021/01/15 06:49:34;;;;;;;6.00;3.15;;;;;;;6.19;45.56;101296.97;5031120;28;20054;-67
2021/01/15 06:52:00;;;;;;;7.57;3.35;;;;;;;6.19;45.61;101304.81;5030841;28;20049;-68
2021/01/15 06:54:36;;;;;;;5.68;3.00;;;;;;;6.29;51.35;101298.41;5030347;28;20045;-69
2021/01/15 06:57:13;;;;;;;9.10;3.17;;;;;;;6.39;50.04;101301.59;5036516;28;20099;-67
2021/01/15 06:59:40;;;;;;;10.93;4.43;;;;;;;6.36;48.86;101294.72;5036959;28;20049;-67
2021/01/15 07:02:11;;;;;;;13.27;7.60;;;;;;;6.33;48.11;101299.19;5024399;28;20053;-66
2021/01/15 07:04:58;;;;;;;17.42;10.15;;;;;;;6.30;47.57;101309.72;5018914;28;20046;-66
2021/01/15 07:07:27;;;;;;;14.43;7.25;;;;;;;6.26;47.18;101306.34;5029678;28;20489;-66
2021/01/15 07:09:54;;;;;;;11.30;5.82;;;;;;;6.23;46.88;101309.03;5029234;28;20103;-67
2021/01/15 07:12:22;;;;;;;8.57;4.93;;;;;;;6.21;46.83;101309.06;5027636;28;20406;-68
2021/01/15 07:14:51;;;;;;;5.60;3.60;;;;;;;6.21;46.64;101309.06;5026934;28;20072;-66
2021/01/15 07:17:27;;;;;;;6.43;3.03;;;;;;;6.20;46.44;101311.72;5034884;28;20584;-67
2021/01/15 07:20:12;;;;;;;6.22;3.30;;;;;;;6.18;46.35;101311.78;5032276;28;20060;-67
2021/01/15 07:22:52;;;;;;;7.40;3.70;;;;;;;6.18;46.32;101313.50;5034091;28;20053;-66
2021/01/15 07:25:20;;;;;;;8.25;3.40;;;;;;;6.18;46.18;101318.72;5029835;28;20045;-67
2021/01/15 07:27:47;;;;;;;7.40;3.90;;;;;;;6.18;46.08;101321.31;5027995;28;20054;-66
2021/01/15 07:30:23;;;;;;;4.10;2.72;;;;;;;6.17;46.16;101317.88;5029489;28;20434;-66
2021/01/15 07:32:51;;;;;;;7.63;3.65;;;;;;;6.17;46.12;101327.44;5029059;28;20119;-66
2021/01/15 07:35:19;;;;;;;8.43;4.43;;;;;;;6.16;45.85;101324.00;5016660;28;20160;-67
2021/01/15 07:37:46;;;;;;;10.73;5.53;;;;;;;6.16;45.87;101325.75;5029385;28;20504;-65
2021/01/15 07:40:16;;;;;;;10.80;5.32;;;;;;;6.15;46.03;101327.47;5028815;28;20041;-66
2021/01/15 07:42:43;;;;;;;8.52;4.60;;;;;;;6.15;45.81;101343.13;5029276;28;20056;-66
2021/01/15 07:45:31;;;;;;;9.77;4.53;;;;;;;6.16;45.94;101342.22;5029039;28;20045;-69
2021/01/15 07:47:57;;;;;;;8.88;4.78;;;;;;;6.16;45.78;101344.84;5028627;28;20056;-66
2021/01/15 07:50:31;;;;;;;9.77;5.07;;;;;;;6.16;45.64;101346.59;5028968;28;20489;-66
2021/01/15 07:53:23;;;;;;;9.15;4.60;;;;;;;6.16;45.60;101349.19;5029208;28;20057;-67
2021/01/15 07:55:58;;;;;;;7.80;3.80;;;;;;;6.15;45.61;101345.72;5028721;28;20053;-67
2021/01/15 07:58:37;;;;;;;7.65;4.10;;;;;;;6.17;45.52;101353.50;5027385;28;20060;-66
2021/01/15 08:01:12;;;;;;;9.07;4.50;;;;;;;6.15;45.54;101350.94;5028234;28;20049;-68
2021/01/15 08:03:46;;;;;;;13.40;7.90;;;;;;;6.15;45.43;101360.53;5026836;28;20049;-67
2021/01/15 08:06:16;;;;;;;22.95;13.48;;;;;;;6.15;45.33;101363.13;5023626;28;20099;-67
2021/01/15 08:09:08;;;;;;;37.70;23.83;;;;;;;6.14;45.42;101362.25;5028241;28;20049;-67
2021/01/15 08:11:55;;;;;;;62.05;36.80;;;;;;;6.15;45.53;101374.38;5017229;28;20091;-68
2021/01/15 08:14:21;;;;;;;58.97;35.00;;;;;;;6.13;45.32;101367.50;5027938;28;20065;-67
2021/01/15 08:16:48;;;;;;;49.38;30.17;;;;;;;6.15;45.28;101376.16;5036865;28;20405;-66
2021/01/15 08:19:19;;;;;;;35.13;21.83;;;;;;;6.14;45.29;101383.09;5041511;28;20058;-66
2021/01/15 08:21:46;;;;;;;39.30;24.33;;;;;;;6.14;45.23;101380.50;5035525;28;20060;-68
2021/01/15 08:24:18;;;;;;;44.85;26.25;;;;;;;6.10;45.04;101384.09;5028946;28;20067;-68
2021/01/15 08:26:49;;;;;;;45.78;26.63;;;;;;;6.09;44.93;101387.59;5028318;28;20049;-66
2021/01/15 08:29:16;;;;;;;58.95;31.55;;;;;;;6.09;44.76;101390.19;5026235;28;20057;-66
2021/01/15 08:31:44;;;;;;;71.32;38.03;;;;;;;6.08;44.76;101391.06;5028331;28;20041;-66
2021/01/15 08:34:16;;;;;;;68.47;36.42;;;;;;;6.12;44.86;101394.47;5032882;28;20124;-66
2021/01/15 08:36:45;;;;;;;57.13;32.35;;;;;;;6.13;44.86;101390.97;5039780;28;20041;-66
2021/01/15 08:39:11;;;;;;;38.65;22.75;;;;;;;6.15;45.02;101402.22;5044266;28;20048;-66
2021/01/15 08:41:39;;;;;;;24.77;13.60;;;;;;;6.16;45.08;101407.38;5041062;28;20048;-66
2021/01/15 08:44:06;;;;;;;14.80;8.55;;;;;;;6.18;44.89;101407.31;5042601;28;20068;-66
2021/01/15 08:46:34;;;;;;;15.50;6.55;;;;;;;6.17;44.86;101411.69;5040814;28;20040;-66
2021/01/15 08:49:07;;;;;;;9.20;5.40;;;;;;;6.19;44.68;101422.06;5039911;28;20076;-65
2021/01/15 08:51:35;;;;;;;7.80;3.88;;;;;;;6.21;44.94;101417.69;5041961;28;20052;-66
2021/01/15 08:54:05;;;;;;;4.85;3.05;;;;;;;6.21;44.62;101428.09;5040747;28;20049;-66
2021/01/15 08:56:42;;;;;;;4.88;3.20;;;;;;;6.23;44.63;101426.28;5044246;28;20056;-67
2021/01/15 08:59:13;;;;;;;8.93;3.65;;;;;;;6.24;44.46;101422.78;5040318;28;20508;-66
2021/01/15 09:01:41;;;;;;;7.43;3.50;;;;;;;6.26;44.28;101421.00;5044842;28;20044;-67
2021/01/15 09:04:12;;;;;;;9.15;5.72;;;;;;;6.27;43.80;101432.28;5037165;28;20045;-66
2021/01/15 09:06:40;;;;;;;9.60;5.57;;;;;;;6.28;43.82;101440.06;5042798;28;20283;-66
2021/01/15 09:09:09;;;;;;;10.32;3.70;;;;;;;6.28;43.51;101434.84;5038751;28;20057;-67
2021/01/15 09:11:37;;;;;;;5.10;3.38;;;;;;;6.27;43.51;101435.75;5042048;28;20041;-66
2021/01/15 09:14:05;;;;;;;5.63;3.47;;;;;;;6.29;43.57;101443.53;5041576;28;20052;-66
2021/01/15 09:16:31;;;;;;;5.53;3.50;;;;;;;6.31;43.39;101449.53;5037954;28;20041;-66
2021/01/15 09:19:08;;;;;;;6.18;3.08;;;;;;;6.28;43.12;101447.88;5042391;28;20044;-66
2021/01/15 09:22:17;;;;;;;5.10;3.00;;;;;;;6.31;42.86;101445.19;5038940;28;20097;-66
2021/01/15 09:24:43;;;;;;;8.95;3.53;;;;;;;6.33;42.92;101453.81;5025429;28;20041;-67
2021/01/15 09:27:10;;;;;;;6.45;2.97;;;;;;;6.35;42.79;101456.41;5023331;28;20050;-66
2021/01/15 09:29:38;;;;;;;5.88;2.97;;;;;;;6.36;42.73;101456.34;5030921;28;20124;-68
2021/01/15 09:32:04;;;;;;;5.38;3.35;;;;;;;6.36;42.51;101458.97;5030366;28;20052;-68
2021/01/15 09:34:32;;;;;;;5.43;3.25;;;;;;;6.38;42.54;101456.31;5031562;28;20049;-68
2021/01/15 09:36:59;;;;;;;4.32;2.88;;;;;;;6.39;42.45;101468.44;5031132;28;20054;-67
2021/01/15 09:39:26;;;;;;;7.60;4.30;;;;;;;6.40;42.53;101451.91;5031752;28;20050;-68
2021/01/15 09:41:57;;;;;;;9.20;4.50;;;;;;;6.42;42.24;101459.69;5031718;28;20101;-68
2021/01/15 09:44:26;;;;;;;9.00;5.35;;;;;;;6.42;42.24;101459.69;5031278;28;20044;-67
2021/01/15 09:47:10;;;;;;;6.30;3.92;;;;;;;6.41;42.05;101455.38;5031450;28;20048;-67
2021/01/15 09:49:36;;;;;;;4.22;3.08;;;;;;;6.41;41.85;101458.81;5024010;28;20041;-67
2021/01/15 09:52:03;;;;;;;5.53;3.10;;;;;;;6.41;41.81;101453.59;5030936;28;20489;-66
2021/01/15 09:54:33;;;;;;;13.05;7.68;;;;;;;6.43;41.61;101456.19;5022268;28;20046;-68
2021/01/15 09:57:00;;;;;;;8.13;5.03;;;;;;;6.44;41.57;101461.34;5030137;28;20063;-67
2021/01/15 09:59:26;;;;;;;6.85;3.78;;;;;;;6.45;41.40;101462.19;5031149;28;20045;-68
2021/01/15 10:01:52;;;;;;;5.82;3.53;;;;;;;6.47;41.31;101460.41;5033443;28;20490;-66
2021/01/15 10:04:19;;;;;;;5.43;3.00;;;;;;;6.48;41.05;101462.13;5040382;28;20053;-67
2021/01/15 10:06:46;;;;;;;4.63;4.13;;;;;;;6.50;41.07;101462.91;5045487;28;20045;-66
2021/01/15 10:09:14;;;;;;;5.50;3.72;;;;;;;6.52;40.90;101461.13;5042474;28;20434;-67
2021/01/15 10:11:42;;;;;;;8.13;4.03;;;;;;;6.52;40.75;101459.38;5044667;28;20041;-67
2021/01/15 10:14:10;;;;;;;8.02;4.30;;;;;;;6.54;40.69;101459.34;5043788;28;20049;-67
2021/01/15 10:16:38;;;;;;;8.40;4.65;;;;;;;6.57;40.87;101455.81;5041596;28;20124;-66
2021/01/15 10:19:04;;;;;;;7.35;4.68;;;;;;;6.59;40.72;101444.44;5045552;28;20045;-66
2021/01/15 10:21:32;;;;;;;6.93;3.63;;;;;;;6.61;40.42;101446.97;5041582;28;20048;-68
2021/01/15 10:23:59;;;;;;;6.03;3.83;;;;;;;6.63;40.45;101451.25;5046073;28;20052;-66
2021/01/15 10:26:30;;;;;;;5.53;3.55;;;;;;;6.66;40.32;101437.28;5043464;28;20046;-67
2021/01/15 10:28:58;;;;;;;5.07;3.20;;;;;;;6.70;40.23;101449.31;5047150;28;20041;-67
2021/01/15 10:31:35;;;;;;;7.18;4.00;;;;;;;6.73;40.26;101441.41;5041592;28;20056;-67
2021/01/15 10:34:03;;;;;;;7.03;3.42;;;;;;;6.77;40.18;101434.38;5044278;28;20455;-67
2021/01/15 10:36:30;;;;;;;5.57;3.67;;;;;;;6.80;39.95;101436.88;5041910;28;20056;-66
2021/01/15 10:38:56;;;;;;;6.30;3.33;;;;;;;6.81;39.66;101442.03;5043565;28;20052;-67
2021/01/15 10:41:41;;;;;;;5.53;3.33;;;;;;;6.82;39.62;101435.06;5035412;28;20405;-67
2021/01/15 10:44:08;;;;;;;5.68;3.13;;;;;;;6.81;39.58;101434.22;5029948;28;20056;-67
2021/01/15 10:46:38;;;;;;;6.78;3.60;;;;;;;6.82;39.45;101440.28;5029995;28;20049;-69
2021/01/15 10:49:12;;;;;;;6.28;3.50;;;;;;;6.82;39.56;101435.06;5043411;28;20045;-67
2021/01/15 10:51:43;;;;;;;6.45;2.80;;;;;;;6.81;39.34;101436.81;5044360;28;20044;-67
2021/01/15 10:54:10;;;;;;;7.65;3.28;;;;;;;6.79;38.91;101436.03;5042029;28;20048;-67
2021/01/15 10:56:40;;;;;;;5.30;2.95;;;;;;;6.82;39.01;101437.69;5043625;28;20049;-68
2021/01/15 10:59:08;;;;;;;5.40;2.88;;;;;;;6.84;39.00;101441.09;5040964;28;20048;-68
2021/01/15 11:01:48;;;;;;;4.45;2.92;;;;;;;6.88;38.82;101426.19;5036222;28;20060;-68
2021/01/15 11:04:16;;;;;;;5.40;3.10;;;;;;;6.90;38.66;101430.47;5029631;28;20494;-67
2021/01/15 11:06:45;;;;;;;4.57;2.70;;;;;;;6.91;38.47;101428.69;5033463;28;20045;-68
2021/01/15 11:09:22;;;;;;;15.32;3.80;;;;;;;6.92;38.42;101425.19;5037241;28;20052;-69
2021/01/15 11:12:07;;;;;;;3.80;2.65;;;;;;;6.91;38.62;101419.13;5036129;28;20045;-70
2021/01/15 11:14:36;;;;;;;5.30;2.75;;;;;;;6.92;38.22;101422.59;5040201;28;20049;-68
2021/01/15 11:17:02;;;;;;;5.70;3.00;;;;;;;6.92;38.17;101423.47;5041644;28;20116;-69
2021/01/15 11:19:29;;;;;;;6.22;3.10;;;;;;;6.91;38.10;101415.66;5041688;28;20061;-67
2021/01/15 11:21:55;;;;;;;5.22;2.25;;;;;;;6.91;37.65;101416.53;5043991;28;20049;-68
2021/01/15 11:24:22;;;;;;;5.05;2.70;;;;;;;6.92;37.74;101415.63;5034224;28;20050;-69
2021/01/15 11:26:48;;;;;;;5.18;3.30;;;;;;;6.95;37.82;101412.06;5033994;28;20052;-68
2021/01/15 11:29:15;;;;;;;5.35;3.40;;;;;;;6.96;37.82;101409.41;5035667;28;20128;-68
2021/01/15 11:31:42;;;;;;;6.53;3.22;;;;;;;7.00;37.68;101412.78;5039588;28;20052;-69
2021/01/15 11:34:09;;;;;;;4.82;3.50;;;;;;;7.00;37.66;101412.78;5033717;28;20051;-69
2021/01/15 11:36:36;;;;;;;6.82;3.10;;;;;;;7.01;37.58;101402.28;5025563;28;20049;-67
2021/01/15 11:39:06;;;;;;;5.65;3.13;;;;;;;7.03;37.46;101403.13;5031231;28;20052;-69
2021/01/15 11:41:33;;;;;;;6.80;3.10;;;;;;;7.05;37.34;101402.19;5032875;28;20045;-68
2021/01/15 11:43:59;;;;;;;5.35;3.60;;;;;;;7.07;37.48;101389.97;5038545;28;20414;-69
2021/01/15 11:46:27;;;;;;;15.15;8.13;;;;;;;7.08;37.48;101391.66;5031278;28;20079;-69
2021/01/15 11:48:54;;;;;;;11.80;6.40;;;;;;;7.08;37.47;101389.91;5039944;28;20099;-68